createdAt,value
2023-03-23T15:58:02.106Z,79.71
2023-03-23T16:00:29.654Z,79.95
2023-03-23T16:03:03.240Z,79.27
2023-03-23T16:05:30.000Z,80.24
2023-03-23T16:07:56.848Z,80.39
2023-03-23T16:10:24.770Z,80.05
2023-03-23T16:12:51.458Z,80.67
2023-03-23T16:15:18.951Z,80.71
2023-03-23T16:17:48.849Z,80.39
2023-03-23T16:20:19.553Z,80.66
2023-03-23T16:22:47.014Z,81.09
2023-03-23T16:25:14.335Z,80.70
2023-03-23T16:27:42.183Z,81.22
2023-03-23T16:30:23.391Z,82.18
2023-03-23T16:32:50.017Z,82.02
2023-03-23T16:35:18.766Z,81.33
2023-03-23T16:37:47.960Z,82.53
2023-03-23T16:40:16.420Z,82.43
2023-03-23T16:42:43.306Z,82.46
2023-03-23T16:45:10.674Z,83.65
2023-03-23T16:47:37.605Z,83.14
2023-03-23T16:50:11.731Z,83.38
2023-03-23T16:52:46.345Z,83.95
2023-03-23T16:55:14.747Z,84.42
2023-03-23T16:57:43.366Z,85.02
2023-03-23T17:00:16.320Z,84.85
2023-03-23T17:02:43.396Z,84.84
2023-03-23T17:05:11.229Z,85.16
2023-03-23T17:07:42.099Z,85.61
2023-03-23T17:10:17.088Z,85.99
2023-03-23T17:12:44.431Z,86.40
2023-03-23T17:15:11.717Z,86.87
2023-03-23T17:17:38.455Z,86.98
2023-03-23T17:20:06.610Z,87.68
2023-03-23T17:22:33.689Z,87.88
2023-03-23T17:25:00.494Z,88.35
2023-03-23T17:27:27.428Z,88.46
2023-03-23T17:29:54.028Z,88.86
2023-03-23T17:32:21.847Z,89.43
2023-03-23T17:34:48.424Z,90.15
2023-03-23T17:37:19.472Z,90.81
2023-03-23T17:39:47.599Z,91.14
2023-03-23T17:42:14.735Z,91.21
2023-03-23T17:44:41.973Z,91.42
2023-03-23T17:47:08.544Z,91.40
2023-03-23T17:49:39.262Z,91.44
2023-03-23T17:52:05.981Z,92.41
2023-03-23T17:54:32.571Z,92.50
2023-03-23T17:57:01.034Z,93.21
2023-03-23T17:59:29.217Z,92.83
2023-03-23T18:01:56.080Z,93.27
2023-03-23T18:04:22.738Z,93.16
2023-03-23T18:06:49.428Z,93.62
2023-03-23T18:09:16.095Z,93.52
2023-03-23T18:11:42.625Z,94.02
2023-03-23T18:14:09.169Z,94.04
2023-03-23T18:16:35.769Z,94.59
2023-03-23T18:19:02.318Z,94.06
2023-03-23T18:21:29.000Z,94.85
2023-03-23T18:23:59.493Z,94.87
2023-03-23T18:26:27.607Z,94.47
2023-03-23T18:28:54.450Z,94.15
2023-03-23T18:31:21.482Z,93.47
2023-03-23T18:33:50.829Z,93.22
2023-03-23T18:36:23.282Z,94.03
2023-03-23T18:38:50.466Z,93.59
2023-03-23T18:41:18.371Z,93.97
2023-03-23T18:43:50.880Z,93.85
2023-03-23T18:46:17.817Z,94.28
2023-03-23T18:48:44.444Z,93.70
2023-03-23T18:51:11.825Z,93.69
2023-03-23T18:53:38.323Z,93.30
2023-03-23T18:56:17.397Z,92.99
2023-03-23T18:58:44.956Z,92.70
2023-03-23T19:01:16.080Z,91.91
2023-03-23T19:03:43.470Z,91.68
2023-03-23T19:06:22.785Z,92.23
2023-03-23T19:08:50.318Z,92.34
2023-03-23T19:11:17.881Z,92.10
2023-03-23T19:13:58.445Z,92.02
2023-03-23T19:16:28.002Z,92.11
2023-03-23T19:18:54.488Z,92.25
2023-03-23T19:21:25.329Z,92.98
2023-03-23T19:23:53.303Z,93.82
2023-03-23T19:26:24.454Z,94.05
2023-03-23T19:31:24.867Z,94.67
2023-03-23T19:33:53.084Z,95.36
2023-03-23T19:36:21.437Z,95.74
2023-03-23T19:38:51.795Z,95.94
2023-03-23T19:41:19.391Z,96.01
2023-03-23T19:43:46.063Z,97.42
2023-03-23T19:46:13.611Z,97.97
2023-03-23T19:48:40.609Z,98.16
2023-03-23T19:51:09.342Z,97.97
2023-03-23T19:53:36.550Z,98.97
2023-03-23T19:56:04.920Z,98.77
2023-03-23T19:58:32.573Z,98.17
2023-03-23T20:01:01.776Z,99.50
2023-03-23T20:03:28.492Z,99.32
2023-03-23T20:06:02.953Z,98.96
2023-03-23T20:08:30.072Z,99.72
2023-03-23T20:11:08.952Z,99.38
2023-03-23T20:13:36.205Z,99.62
2023-03-23T20:16:02.737Z,99.16
2023-03-23T20:18:30.280Z,99.82
2023-03-23T20:21:08.990Z,98.98
2023-03-23T20:23:36.831Z,98.80
2023-03-23T20:26:13.563Z,97.93
2023-03-23T20:28:42.422Z,98.03
2023-03-23T20:31:16.958Z,98.87
2023-03-23T20:33:48.104Z,97.66
2023-03-23T20:36:36.073Z,98.71
2023-03-23T20:39:21.199Z,98.23
2023-03-23T20:41:50.896Z,99.49
2023-03-23T20:44:19.981Z,99.34
2023-03-23T20:46:49.083Z,98.77
2023-03-23T20:49:19.723Z,98.79
2023-03-23T20:51:47.054Z,98.32
2023-03-23T20:54:15.794Z,98.40
2023-03-23T20:56:43.588Z,98.26
2023-03-23T20:59:11.193Z,97.51
2023-03-23T21:01:40.020Z,97.18
2023-03-23T21:04:15.580Z,97.12
2023-03-23T21:06:44.303Z,96.06
2023-03-23T21:09:11.384Z,95.77
2023-03-23T21:11:38.166Z,94.98
2023-03-23T21:14:05.282Z,94.13
2023-03-23T21:16:31.794Z,94.10
2023-03-23T21:18:58.721Z,93.12
2023-03-23T21:21:34.761Z,92.44
2023-03-23T21:24:03.743Z,92.82
2023-03-23T21:26:30.883Z,92.82
2023-03-23T21:29:00.755Z,92.64
2023-03-23T21:31:33.561Z,92.64
2023-03-23T21:34:00.577Z,92.57
2023-03-23T21:36:28.032Z,92.54
2023-03-23T21:38:55.387Z,93.12
2023-03-23T21:41:22.816Z,93.10
2023-03-23T21:43:50.147Z,93.22
2023-03-23T21:46:18.319Z,93.18
2023-03-23T21:48:54.166Z,93.69
2023-03-23T21:51:24.318Z,93.63
2023-03-23T21:53:56.862Z,94.45
2023-03-23T21:56:27.212Z,94.53
2023-03-23T21:58:54.901Z,94.53
2023-03-23T22:01:22.251Z,95.30
2023-03-23T22:03:49.552Z,95.36
2023-03-23T22:06:26.278Z,95.91
2023-03-23T22:08:53.730Z,95.26
2023-03-23T22:11:23.409Z,95.61
2023-03-23T22:13:50.645Z,95.75
2023-03-23T22:16:20.347Z,96.04
2023-03-23T22:18:48.664Z,96.16
2023-03-23T22:21:17.281Z,97.02
2023-03-23T22:23:45.027Z,97.47
2023-03-23T22:26:12.703Z,97.67
2023-03-23T22:28:42.404Z,97.20
2023-03-23T22:31:19.061Z,98.01
2023-03-23T22:33:47.811Z,98.29
2023-03-23T22:36:15.132Z,97.74
2023-03-23T22:38:45.574Z,97.98
2023-03-23T22:41:21.663Z,98.15
2023-03-23T22:43:49.364Z,98.35
2023-03-23T22:46:16.410Z,98.22
2023-03-23T22:48:48.130Z,98.63
2023-03-23T22:51:17.116Z,99.56
2023-03-23T22:53:44.606Z,99.69
2023-03-23T22:56:12.040Z,100.00
2023-03-23T22:58:43.169Z,100.00
2023-03-23T23:01:16.366Z,100.00
2023-03-23T23:03:43.501Z,100.00
2023-03-23T23:06:12.044Z,100.00
2023-03-23T23:08:39.262Z,100.00
2023-03-23T23:11:06.634Z,100.00
2023-03-23T23:13:35.690Z,100.00
2023-03-23T23:16:02.574Z,100.00
2023-03-23T23:18:31.047Z,100.00
2023-03-23T23:21:00.108Z,100.00
2023-03-23T23:23:28.224Z,100.00
2023-03-23T23:25:54.783Z,99.93
2023-03-23T23:28:22.886Z,100.00
2023-03-23T23:30:50.495Z,100.00
2023-03-23T23:33:17.038Z,100.00
2023-03-23T23:35:43.632Z,100.00
2023-03-23T23:38:12.504Z,100.00
2023-03-23T23:40:41.319Z,100.00
2023-03-23T23:43:08.452Z,100.00
2023-03-23T23:45:34.931Z,100.00
2023-03-23T23:48:01.668Z,100.00
2023-03-23T23:50:28.662Z,100.00
2023-03-23T23:52:55.254Z,100.00
2023-03-23T23:55:22.046Z,100.00
2023-03-23T23:57:49.223Z,100.00
